createdAt,value
2019-02-14T00:06:14.385Z,-0.84
2019-02-14T00:11:19.620Z,-0.85
2019-02-14T00:16:24.812Z,-0.83
2019-02-14T00:27:00.255Z,-0.97
2019-02-14T00:32:05.783Z,-0.93
2019-02-14T00:37:11.041Z,-0.94
2019-02-14T00:47:46.774Z,-1.21
2019-02-14T00:53:11.153Z,-1.00
2019-02-14T00:58:16.358Z,-1.00
2019-02-14T01:03:21.572Z,-0.91
2019-02-14T01:08:38.163Z,-0.91
2019-02-14T01:13:43.394Z,-0.86
2019-02-14T01:18:48.585Z,-0.92
2019-02-14T01:24:12.910Z,-0.94
2019-02-14T01:39:52.640Z,-1.00
2019-02-14T01:44:58.241Z,-0.97
2019-02-14T01:50:03.556Z,-0.92
2019-02-14T01:55:23.757Z,-0.97
2019-02-14T02:00:28.983Z,-0.98
2019-02-14T02:17:00.087Z,-1.27
2019-02-14T02:27:35.174Z,-1.30
2019-02-14T02:32:59.364Z,-1.20
2019-02-14T02:38:05.255Z,-1.26
2019-02-14T02:43:29.519Z,-1.26
2019-02-14T02:54:02.842Z,-1.39
2019-02-14T02:59:08.077Z,-1.37
2019-02-14T03:09:29.593Z,-1.52
2019-02-14T03:14:34.821Z,-1.51
2019-02-14T03:19:40.028Z,-1.53
2019-02-14T03:24:45.226Z,-1.45
2019-02-14T03:35:22.227Z,-1.44
2019-02-14T03:57:08.989Z,-1.74
2019-02-14T04:02:14.188Z,-1.65
2019-02-14T04:07:49.928Z,-1.57
2019-02-14T04:12:55.126Z,-1.60
2019-02-14T04:23:17.432Z,-1.63
2019-02-14T04:28:22.639Z,-1.71
2019-02-14T04:33:47.223Z,-1.74
2019-02-14T04:39:05.012Z,-1.73
2019-02-14T04:44:10.299Z,-2.00
2019-02-14T04:49:27.632Z,-2.02
2019-02-14T04:54:44.337Z,-2.05
2019-02-14T04:59:49.528Z,-1.98
2019-02-14T05:04:54.726Z,-2.08
2019-02-14T05:09:59.919Z,-2.24
2019-02-14T05:15:24.317Z,-2.17
2019-02-14T05:20:29.550Z,-2.33
2019-02-14T05:25:34.759Z,-2.40
2019-02-14T05:36:16.604Z,-2.28
2019-02-14T05:41:40.917Z,-2.35
2019-02-14T05:46:57.997Z,-2.29
2019-02-14T05:57:33.004Z,-2.35
2019-02-14T06:07:55.352Z,-2.33
2019-02-14T06:13:11.881Z,-2.48
2019-02-14T06:18:17.159Z,-2.42
2019-02-14T06:28:38.949Z,-2.63
2019-02-14T06:39:20.436Z,-2.61
2019-02-14T06:44:25.732Z,-2.60
2019-02-14T06:49:31.027Z,-2.68
2019-02-14T06:54:55.285Z,-2.61
2019-02-14T07:00:31.219Z,-2.65
2019-02-14T07:05:36.520Z,-2.56
2019-02-14T07:10:41.991Z,-2.54
2019-02-14T07:15:47.189Z,-2.53
2019-02-14T07:21:11.458Z,-2.50
2019-02-14T07:26:16.696Z,-2.42
2019-02-14T07:31:22.174Z,-2.28
2019-02-14T07:36:46.753Z,-1.98
2019-02-14T07:41:51.958Z,-1.57
2019-02-14T07:46:57.278Z,-1.38
2019-02-14T07:57:29.456Z,-0.83
2019-02-14T08:02:34.712Z,-0.57
2019-02-14T08:08:00.661Z,-0.28
2019-02-14T08:13:06.024Z,-0.16
2019-02-14T08:18:11.211Z,0.09
2019-02-14T08:23:16.408Z,0.02
2019-02-14T08:28:21.700Z,0.34
2019-02-14T08:33:27.263Z,0.56
2019-02-14T08:38:51.514Z,0.50
2019-02-14T08:44:15.625Z,0.87
2019-02-14T08:49:39.830Z,1.12
2019-02-14T09:00:41.138Z,1.63
2019-02-14T09:05:46.407Z,2.02
2019-02-14T09:10:52.070Z,2.21
2019-02-14T09:26:51.143Z,2.82
2019-02-14T09:31:56.362Z,3.02
2019-02-14T09:37:13.100Z,3.20
2019-02-14T09:42:18.387Z,3.61
2019-02-14T09:47:23.670Z,3.78
2019-02-14T09:52:29.196Z,3.95
2019-02-14T09:57:34.375Z,4.36
2019-02-14T10:08:21.102Z,4.24
2019-02-14T10:29:36.394Z,5.64
2019-02-14T10:34:47.506Z,6.17
2019-02-14T10:39:53.079Z,6.62
2019-02-14T10:50:15.323Z,7.04
2019-02-14T10:55:32.284Z,7.45
2019-02-14T11:00:37.601Z,7.67
2019-02-14T11:05:42.854Z,7.59
2019-02-14T11:10:59.709Z,8.06
2019-02-14T11:16:05.859Z,8.37
2019-02-14T11:21:11.072Z,8.57
2019-02-14T11:31:34.691Z,9.28
2019-02-14T11:37:08.379Z,9.01
2019-02-14T11:58:31.302Z,10.27
2019-02-14T12:03:36.590Z,10.83
2019-02-14T12:08:53.011Z,10.49
2019-02-14T12:14:05.348Z,10.54
2019-02-14T12:19:10.549Z,10.52
2019-02-14T12:24:15.803Z,10.05
2019-02-14T12:29:39.991Z,10.85
2019-02-14T12:35:04.093Z,11.21
2019-02-14T12:51:02.305Z,12.66
2019-02-14T12:56:28.084Z,12.58
2019-02-14T13:06:50.452Z,12.26
2019-02-14T13:12:15.822Z,11.79
2019-02-14T13:17:21.043Z,11.40
2019-02-14T13:22:45.427Z,11.33
2019-02-14T13:27:56.434Z,10.96
2019-02-14T13:33:01.879Z,10.99
2019-02-14T13:38:07.106Z,10.82
2019-02-14T13:43:12.313Z,10.48
2019-02-14T13:48:17.519Z,10.34
2019-02-14T13:53:41.788Z,9.91
2019-02-14T13:58:52.633Z,9.72
2019-02-14T14:04:17.005Z,9.72
2019-02-14T14:09:22.283Z,9.75
2019-02-14T14:14:27.488Z,9.48
2019-02-14T14:19:32.974Z,9.34
2019-02-14T14:24:50.450Z,9.16
2019-02-14T14:29:55.665Z,9.16
2019-02-14T14:35:00.939Z,9.11
2019-02-14T14:46:21.626Z,9.08
2019-02-14T14:51:27.257Z,9.12
2019-02-14T14:56:33.530Z,9.14
2019-02-14T15:01:39.237Z,9.19
2019-02-14T15:06:56.242Z,9.26
2019-02-14T15:12:01.919Z,9.38
2019-02-14T15:17:19.266Z,9.34
2019-02-14T15:22:36.285Z,9.34
2019-02-14T15:27:41.563Z,9.43
2019-02-14T15:33:05.861Z,9.37
2019-02-14T15:38:32.062Z,9.42
2019-02-14T15:54:55.615Z,9.14
2019-02-14T16:00:10.423Z,9.05
2019-02-14T16:05:40.345Z,8.96
2019-02-14T16:10:56.059Z,8.75
2019-02-14T16:16:08.259Z,8.57
2019-02-14T16:21:13.471Z,8.32
2019-02-14T16:26:30.298Z,8.20
2019-02-14T16:31:35.521Z,7.98
2019-02-14T16:36:59.939Z,7.81
2019-02-14T16:42:05.142Z,7.70
2019-02-14T16:47:10.326Z,7.52
2019-02-14T16:52:15.605Z,7.20
2019-02-14T16:57:21.088Z,6.87
2019-02-14T17:02:26.301Z,6.69
2019-02-14T17:07:31.494Z,6.37
2019-02-14T17:17:53.111Z,5.99
2019-02-14T17:28:46.042Z,5.48
2019-02-14T17:50:39.627Z,4.78
2019-02-14T17:55:44.889Z,4.51
2019-02-14T18:00:57.855Z,4.40
2019-02-14T18:06:03.088Z,4.42
2019-02-14T18:11:08.404Z,4.41
2019-02-14T18:16:13.607Z,4.11
2019-02-14T18:21:18.844Z,3.95
2019-02-14T18:26:24.082Z,3.70
2019-02-14T18:31:41.255Z,3.66
2019-02-14T18:36:46.473Z,3.44
2019-02-14T18:41:51.738Z,3.34
2019-02-14T18:47:03.116Z,2.98
2019-02-14T18:52:27.703Z,2.93
2019-02-14T18:57:34.686Z,2.75
2019-02-14T19:02:59.034Z,2.58
2019-02-14T19:13:21.513Z,2.50
2019-02-14T19:24:02.800Z,2.34
2019-02-14T19:29:08.076Z,2.16
2019-02-14T19:34:24.762Z,2.20
2019-02-14T19:39:30.314Z,2.12
2019-02-14T19:44:35.641Z,1.85
2019-02-14T19:49:54.228Z,1.89
2019-02-14T20:00:36.051Z,1.61
2019-02-14T20:11:10.907Z,1.47
2019-02-14T20:16:35.583Z,1.31
2019-02-14T20:27:17.569Z,1.24
2019-02-14T20:38:13.784Z,1.03
2019-02-14T20:48:54.855Z,0.94
2019-02-14T20:54:00.380Z,0.92
2019-02-14T20:59:17.003Z,0.67
2019-02-14T21:04:22.249Z,0.60
2019-02-14T21:09:27.480Z,0.69
2019-02-14T21:14:32.875Z,0.77
2019-02-14T21:30:53.535Z,0.35
2019-02-14T21:36:12.343Z,0.45
2019-02-14T21:46:35.247Z,0.19
2019-02-14T21:51:40.942Z,0.22
2019-02-14T21:57:05.150Z,0.39
2019-02-14T22:02:29.411Z,0.41
2019-02-14T22:07:35.362Z,0.36
2019-02-14T22:13:06.237Z,0.27
2019-02-14T22:18:50.887Z,0.06
2019-02-14T22:29:26.251Z,0.17
2019-02-14T22:40:01.805Z,-0.04
2019-02-14T22:45:18.228Z,0.06
2019-02-14T22:50:23.449Z,-0.08
2019-02-14T22:55:28.711Z,-0.15
2019-02-14T23:06:45.812Z,-0.23
2019-02-14T23:11:51.016Z,-0.28
2019-02-14T23:17:15.541Z,-0.28
2019-02-14T23:22:20.740Z,-0.32
2019-02-14T23:33:06.873Z,-0.31
2019-02-14T23:38:12.072Z,-0.44
2019-02-14T23:43:17.319Z,-0.42
2019-02-14T23:48:22.533Z,-0.44
2019-02-14T23:53:28.145Z,-0.44
2019-02-14T23:58:33.361Z,-0.46
